PWSweather.com
Personal Weather Stations
Station Observations
KMAMEDFI2
Medfield, MA 02052

Medfield, MA 02052

Lat: 42.1900822, Lon: -71.3296889

Elevation: 138

Station Type: Rainwise WS MK-III

http://www.medfieldweather.com

High Low Average
Temperature 70.0°F21.1°C 51.2°F10.7°C 59.9°F15.5°C
Dew Point 62.2°F16.8°C 50.4°F10.2°C 57.2°F14.0°C
Winds 6.9 mph 11.1 kmh Calm Calm 2.0 mph SSE3.2 kmh SSE
Wind Gusts 9.2 mph14.8 kmh -- 2.0 mph3.2 kmh
Humidity 98% 64% 91%
Pressure 30.18 in1022.0 mb 29.99 in1015.6 mb -
Precipitation 0.11 in2.8 mm - -
Hour Temp Dew Point Humidity Winds Wind Gusts Pressure Precip Precip Rate Daily Precip Total
12:00 AM 59.3°F15.2°C 58.7°F14.8°C 98% 1.2 mph WSW1.9 kmh WSW 2.3 mph3.7 kmh 30.00 in1015.9 mb - 0.02 in0.5 mm 0.02 in0.5 mm
12:10 AM 59.2°F15.1°C 58.6°F14.8°C 98% 2.3 mph W3.7 kmh W 2.3 mph3.7 kmh 29.99 in1015.6 mb - 0.02 in0.5 mm 0.04 in1.0 mm
12:20 AM 59.0°F15.0°C 58.5°F14.7°C 98% 2.3 mph WSW3.7 kmh WSW 2.3 mph3.7 kmh 30.00 in1015.9 mb - 0.01 in0.3 mm 0.05 in1.3 mm
12:30 AM 58.9°F14.9°C 58.3°F14.6°C 98% 2.3 mph SW3.7 kmh SW 3.5 mph5.6 kmh 30.00 in1015.9 mb - 0.01 in0.3 mm 0.06 in1.5 mm
12:40 AM 58.7°F14.8°C 58.1°F14.5°C 98% Calm Calm -- 30.00 in1015.9 mb - 0.02 in0.5 mm 0.01 in0.3 mm
12:50 AM 58.6°F14.8°C 58.1°F14.5°C 98% Calm Calm 1.2 mph1.9 kmh 30.00 in1015.9 mb - 0.06 in1.5 mm 0.06 in1.5 mm
01:00 AM 58.6°F14.8°C 58.0°F14.4°C 98% 2.3 mph W3.7 kmh W 2.3 mph3.7 kmh 30.00 in1015.9 mb - 0.07 in1.8 mm 0.07 in1.8 mm
01:10 AM 58.5°F14.7°C 58.0°F14.4°C 98% 2.3 mph S3.7 kmh S 2.3 mph3.7 kmh 30.01 in1016.3 mb - 0.08 in2.0 mm 0.08 in2.0 mm
01:20 AM 58.7°F14.8°C 58.1°F14.5°C 98% 2.3 mph SSE3.7 kmh SSE 2.3 mph3.7 kmh 29.99 in1015.6 mb - 0.08 in2.0 mm 0.08 in2.0 mm
01:30 AM 58.8°F14.9°C 58.2°F14.6°C 98% 2.3 mph S3.7 kmh S 3.5 mph5.6 kmh 30.02 in1016.6 mb - 0.08 in2.0 mm 0.08 in2.0 mm
01:40 AM 58.9°F14.9°C 58.3°F14.6°C 98% Calm Calm 2.3 mph3.7 kmh 30.01 in1016.3 mb - 0.10 in2.5 mm 0.10 in2.5 mm
01:50 AM 58.9°F14.9°C 58.3°F14.6°C 98% 2.3 mph SE3.7 kmh SE 2.3 mph3.7 kmh 30.01 in1016.3 mb - 0.04 in1.0 mm 0.10 in2.5 mm
02:00 AM 58.9°F14.9°C 58.3°F14.6°C 98% 1.2 mph S1.9 kmh S 2.3 mph3.7 kmh 30.00 in1015.9 mb - 0.05 in1.3 mm 0.11 in2.8 mm
02:10 AM 58.9°F14.9°C 58.3°F14.6°C 98% 1.2 mph SSE1.9 kmh SSE 2.3 mph3.7 kmh 30.01 in1016.3 mb - 0.04 in1.0 mm 0.11 in2.8 mm
02:20 AM 58.9°F14.9°C 58.3°F14.6°C 98% 2.3 mph S3.7 kmh S 2.3 mph3.7 kmh 30.01 in1016.3 mb - 0.03 in0.8 mm 0.11 in2.8 mm
02:30 AM 58.7°F14.8°C 58.1°F14.5°C 98% Calm Calm 1.2 mph1.9 kmh 30.01 in1016.3 mb - 0.03 in0.8 mm 0.11 in2.8 mm
02:40 AM 58.5°F14.7°C 57.9°F14.4°C 98% 2.3 mph SW3.7 kmh SW 2.3 mph3.7 kmh 30.01 in1016.3 mb - 0.01 in0.3 mm 0.11 in2.8 mm
02:50 AM 58.4°F14.7°C 57.8°F14.3°C 98% Calm Calm -- 30.00 in1015.9 mb - 0.01 in0.3 mm 0.11 in2.8 mm
03:00 AM 58.3°F14.6°C 57.7°F14.3°C 98% 2.3 mph SE3.7 kmh SE 2.3 mph3.7 kmh 30.00 in1015.9 mb - 0.00 in0.0 mm 0.11 in2.8 mm
03:10 AM 58.2°F14.6°C 57.6°F14.2°C 98% Calm Calm -- 30.01 in1016.3 mb - 0.00 in0.0 mm 0.11 in2.8 mm
03:20 AM 58.1°F14.5°C 57.5°F14.2°C 98% Calm Calm -- 30.01 in1016.3 mb - 0.00 in0.0 mm 0.11 in2.8 mm
03:30 AM 58.0°F14.4°C 57.5°F14.2°C 98% Calm Calm 1.2 mph1.9 kmh 30.01 in1016.3 mb - 0.00 in0.0 mm 0.11 in2.8 mm
03:40 AM 57.9°F14.4°C 57.1°F13.9°C 97% 1.2 mph SSE1.9 kmh SSE 2.3 mph3.7 kmh 30.02 in1016.6 mb - 0.00 in0.0 mm 0.11 in2.8 mm
03:50 AM 57.9°F14.4°C 57.1°F13.9°C 97% 1.2 mph SE1.9 kmh SE 2.3 mph3.7 kmh 30.02 in1016.6 mb - 0.00 in0.0 mm 0.11 in2.8 mm
04:00 AM 57.7°F14.3°C 56.9°F13.8°C 97% 1.2 mph S1.9 kmh S 2.3 mph3.7 kmh 30.02 in1016.6 mb - 0.00 in0.0 mm 0.11 in2.8 mm
04:10 AM 57.6°F14.2°C 56.8°F13.8°C 97% 1.2 mph S1.9 kmh S 2.3 mph3.7 kmh 30.02 in1016.6 mb - 0.00 in0.0 mm 0.11 in2.8 mm
04:20 AM 57.4°F14.1°C 56.6°F13.7°C 97% Calm Calm 2.3 mph3.7 kmh 30.01 in1016.3 mb - 0.00 in0.0 mm 0.11 in2.8 mm
04:30 AM 57.1°F13.9°C 56.3°F13.5°C 97% 1.2 mph WSW1.9 kmh WSW 1.2 mph1.9 kmh 30.02 in1016.6 mb - 0.00 in0.0 mm 0.11 in2.8 mm
04:40 AM 56.9°F13.8°C 56.1°F13.4°C 97% Calm Calm -- 30.03 in1016.9 mb - 0.00 in0.0 mm 0.11 in2.8 mm
04:50 AM 56.7°F13.7°C 55.9°F13.3°C 97% 1.2 mph SSE1.9 kmh SSE 2.3 mph3.7 kmh 30.03 in1016.9 mb - 0.00 in0.0 mm 0.11 in2.8 mm
05:00 AM 56.6°F13.7°C 55.8°F13.2°C 97% 2.3 mph SE3.7 kmh SE 2.3 mph3.7 kmh 30.03 in1016.9 mb - 0.00 in0.0 mm 0.11 in2.8 mm
05:10 AM 56.4°F13.6°C 55.6°F13.1°C 97% 1.2 mph NE1.9 kmh NE 2.3 mph3.7 kmh 30.03 in1016.9 mb - 0.00 in0.0 mm 0.11 in2.8 mm
05:20 AM 56.3°F13.5°C 55.5°F13.1°C 97% 3.5 mph ESE5.6 kmh ESE 2.3 mph3.7 kmh 30.02 in1016.6 mb - 0.00 in0.0 mm 0.11 in2.8 mm
05:30 AM 56.1°F13.4°C 55.3°F12.9°C 97% 3.5 mph E5.6 kmh E 2.3 mph3.7 kmh 30.01 in1016.3 mb - 0.00 in0.0 mm 0.11 in2.8 mm
05:40 AM 55.9°F13.3°C 55.1°F12.8°C 97% Calm Calm 1.2 mph1.9 kmh 30.03 in1016.9 mb - 0.00 in0.0 mm 0.11 in2.8 mm
05:50 AM 55.9°F13.3°C 55.1°F12.8°C 97% 2.3 mph ESE3.7 kmh ESE 2.3 mph3.7 kmh 30.03 in1016.9 mb - 0.00 in0.0 mm 0.11 in2.8 mm
06:00 AM 55.9°F13.3°C 55.0°F12.8°C 97% 1.2 mph ESE1.9 kmh ESE 2.3 mph3.7 kmh 30.03 in1016.9 mb - 0.00 in0.0 mm 0.11 in2.8 mm
06:10 AM 55.9°F13.3°C 55.1°F12.8°C 97% 2.3 mph ESE3.7 kmh ESE 2.3 mph3.7 kmh 30.02 in1016.6 mb - 0.00 in0.0 mm 0.11 in2.8 mm
06:20 AM 55.9°F13.3°C 55.1°F12.8°C 97% 1.2 mph SE1.9 kmh SE 1.2 mph1.9 kmh 30.03 in1016.9 mb - 0.00 in0.0 mm 0.11 in2.8 mm
06:30 AM 55.9°F13.3°C 55.1°F12.8°C 97% 2.3 mph SSE3.7 kmh SSE 2.3 mph3.7 kmh 30.03 in1016.9 mb - 0.00 in0.0 mm 0.11 in2.8 mm
06:40 AM 55.9°F13.3°C 55.1°F12.8°C 97% Calm Calm -- 30.03 in1016.9 mb - 0.00 in0.0 mm 0.11 in2.8 mm
06:50 AM 55.9°F13.3°C 55.1°F12.8°C 97% Calm Calm -- 30.03 in1016.9 mb - 0.00 in0.0 mm 0.11 in2.8 mm
07:00 AM 55.9°F13.3°C 55.1°F12.8°C 97% Calm Calm -- 30.04 in1017.3 mb - 0.00 in0.0 mm 0.11 in2.8 mm
07:10 AM 56.1°F13.4°C 55.3°F12.9°C 97% Calm Calm -- 30.04 in1017.3 mb - 0.00 in0.0 mm 0.11 in2.8 mm
07:20 AM 56.1°F13.4°C 55.3°F12.9°C 97% Calm Calm -- 30.05 in1017.6 mb - 0.00 in0.0 mm 0.11 in2.8 mm
07:30 AM 56.3°F13.5°C 55.5°F13.1°C 97% Calm Calm -- 30.06 in1017.9 mb - 0.00 in0.0 mm 0.11 in2.8 mm
07:40 AM 56.5°F13.6°C 55.7°F13.2°C 97% 2.3 mph WSW3.7 kmh WSW 2.3 mph3.7 kmh 30.07 in1018.3 mb - 0.00 in0.0 mm 0.11 in2.8 mm
07:50 AM 56.9°F13.8°C 56.1°F13.4°C 97% 2.3 mph SW3.7 kmh SW 2.3 mph3.7 kmh 30.07 in1018.3 mb - 0.00 in0.0 mm 0.11 in2.8 mm
08:00 AM 57.2°F14.0°C 56.4°F13.6°C 97% Calm Calm 1.2 mph1.9 kmh 30.07 in1018.3 mb - 0.00 in0.0 mm 0.11 in2.8 mm
08:10 AM 57.7°F14.3°C 56.9°F13.8°C 97% 2.3 mph SE3.7 kmh SE 2.3 mph3.7 kmh 30.07 in1018.3 mb - 0.00 in0.0 mm 0.11 in2.8 mm
08:20 AM 58.1°F14.5°C 57.6°F14.2°C 98% Calm Calm 1.2 mph1.9 kmh 30.07 in1018.3 mb - 0.00 in0.0 mm 0.11 in2.8 mm
08:30 AM 58.4°F14.7°C 57.8°F14.3°C 98% 2.3 mph SSE3.7 kmh SSE 2.3 mph3.7 kmh 30.07 in1018.3 mb - 0.00 in0.0 mm 0.11 in2.8 mm
08:40 AM 58.5°F14.7°C 57.9°F14.4°C 98% 2.3 mph WSW3.7 kmh WSW 3.5 mph5.6 kmh 30.07 in1018.3 mb - 0.00 in0.0 mm 0.11 in2.8 mm
08:50 AM 58.6°F14.8°C 58.0°F14.4°C 98% 3.5 mph S5.6 kmh S 2.3 mph3.7 kmh 30.08 in1018.6 mb - 0.00 in0.0 mm 0.11 in2.8 mm
09:00 AM 58.7°F14.8°C 58.1°F14.5°C 98% Calm Calm -- 30.07 in1018.3 mb - 0.00 in0.0 mm 0.11 in2.8 mm
09:10 AM 59.7°F15.4°C 59.1°F15.1°C 98% 2.3 mph SE3.7 kmh SE 3.5 mph5.6 kmh 30.07 in1018.3 mb - 0.00 in0.0 mm 0.11 in2.8 mm
09:20 AM 59.9°F15.5°C 59.4°F15.2°C 98% Calm Calm -- 30.08 in1018.6 mb - 0.00 in0.0 mm 0.11 in2.8 mm
09:30 AM 60.1°F15.6°C 59.5°F15.3°C 98% 1.2 mph S1.9 kmh S 2.3 mph3.7 kmh 30.09 in1019.0 mb - 0.00 in0.0 mm 0.11 in2.8 mm
09:40 AM 60.4°F15.8°C 59.8°F15.4°C 98% Calm Calm 2.3 mph3.7 kmh 30.09 in1019.0 mb - 0.00 in0.0 mm 0.11 in2.8 mm
09:50 AM 60.2°F15.7°C 59.6°F15.3°C 98% Calm Calm 1.2 mph1.9 kmh 30.10 in1019.3 mb - 0.00 in0.0 mm 0.11 in2.8 mm
10:00 AM 60.4°F15.8°C 59.9°F15.5°C 98% Calm Calm -- 30.10 in1019.3 mb - 0.00 in0.0 mm 0.11 in2.8 mm
10:10 AM 61.9°F16.6°C 61.1°F16.2°C 97% 1.2 mph SSE1.9 kmh SSE 2.3 mph3.7 kmh 30.09 in1019.0 mb - 0.00 in0.0 mm 0.11 in2.8 mm
10:20 AM 63.3°F17.4°C 60.7°F15.9°C 91% 2.3 mph SE3.7 kmh SE 2.3 mph3.7 kmh 30.10 in1019.3 mb - 0.00 in0.0 mm 0.11 in2.8 mm
10:30 AM 63.2°F17.3°C 60.8°F16.0°C 92% 3.5 mph SE5.6 kmh SE 2.3 mph3.7 kmh 30.11 in1019.6 mb - 0.00 in0.0 mm 0.11 in2.8 mm
10:40 AM 62.7°F17.1°C 60.0°F15.6°C 91% 1.2 mph SSW1.9 kmh SSW -- 30.11 in1019.6 mb - 0.00 in0.0 mm 0.11 in2.8 mm
10:50 AM 63.0°F17.2°C 60.9°F16.1°C 93% 1.2 mph NW1.9 kmh NW 2.3 mph3.7 kmh 30.11 in1019.6 mb - 0.00 in0.0 mm 0.11 in2.8 mm
11:00 AM 62.9°F17.2°C 60.5°F15.8°C 92% 2.3 mph S3.7 kmh S 2.3 mph3.7 kmh 30.12 in1020.0 mb - 0.00 in0.0 mm 0.11 in2.8 mm
11:10 AM 62.8°F17.1°C 60.7°F15.9°C 93% Calm Calm -- 30.13 in1020.3 mb - 0.00 in0.0 mm 0.11 in2.8 mm
11:20 AM 62.1°F16.7°C 61.2°F16.2°C 97% 3.5 mph E5.6 kmh E 3.5 mph5.6 kmh 30.13 in1020.3 mb - 0.00 in0.0 mm 0.11 in2.8 mm
11:30 AM 61.0°F16.1°C 60.4°F15.8°C 98% 3.5 mph SE5.6 kmh SE 3.5 mph5.6 kmh 30.11 in1019.6 mb - 0.00 in0.0 mm 0.11 in2.8 mm
11:40 AM 61.3°F16.3°C 60.8°F16.0°C 98% 2.3 mph SE3.7 kmh SE 2.3 mph3.7 kmh 30.11 in1019.6 mb - 0.00 in0.0 mm 0.11 in2.8 mm
11:50 AM 61.7°F16.5°C 61.2°F16.2°C 98% 2.3 mph SE3.7 kmh SE 2.3 mph3.7 kmh 30.10 in1019.3 mb - 0.00 in0.0 mm 0.11 in2.8 mm
12:00 PM 62.7°F17.1°C 61.9°F16.6°C 97% 3.5 mph ESE5.6 kmh ESE 5.8 mph9.3 kmh 30.11 in1019.6 mb - 0.00 in0.0 mm 0.11 in2.8 mm
12:10 PM 63.2°F17.3°C 60.9°F16.1°C 92% 3.5 mph SSW5.6 kmh SSW 8.1 mph13.0 kmh 30.11 in1019.6 mb - 0.00 in0.0 mm 0.11 in2.8 mm
12:20 PM 64.4°F18.0°C 61.1°F16.2°C 89% 4.6 mph SSE7.4 kmh SSE 9.2 mph14.8 kmh 30.11 in1019.6 mb - 0.00 in0.0 mm 0.11 in2.8 mm
12:30 PM 64.9°F18.3°C 59.9°F15.5°C 84% 2.3 mph ESE3.7 kmh ESE 6.9 mph11.1 kmh 30.11 in1019.6 mb - 0.00 in0.0 mm 0.11 in2.8 mm
12:40 PM 64.7°F18.2°C 60.1°F15.6°C 85% 2.3 mph SE3.7 kmh SE 3.5 mph5.6 kmh 30.11 in1019.6 mb - 0.00 in0.0 mm 0.11 in2.8 mm
12:50 PM 64.9°F18.3°C 59.6°F15.3°C 83% 3.5 mph ESE5.6 kmh ESE 3.5 mph5.6 kmh 30.10 in1019.3 mb - 0.00 in0.0 mm 0.11 in2.8 mm
01:00 PM 65.4°F18.6°C 60.1°F15.6°C 83% 2.3 mph ESE3.7 kmh ESE 2.3 mph3.7 kmh 30.10 in1019.3 mb - 0.00 in0.0 mm 0.11 in2.8 mm
01:10 PM 64.2°F17.9°C 60.2°F15.7°C 87% 2.3 mph E3.7 kmh E 2.3 mph3.7 kmh 30.11 in1019.6 mb - 0.00 in0.0 mm 0.11 in2.8 mm
01:20 PM 63.4°F17.4°C 60.1°F15.6°C 89% 2.3 mph SE3.7 kmh SE 2.3 mph3.7 kmh 30.11 in1019.6 mb - 0.00 in0.0 mm 0.11 in2.8 mm
01:30 PM 63.5°F17.5°C 60.8°F16.0°C 91% 2.3 mph ESE3.7 kmh ESE 2.3 mph3.7 kmh 30.09 in1019.0 mb - 0.00 in0.0 mm 0.11 in2.8 mm
01:40 PM 64.6°F18.1°C 60.3°F15.7°C 86% 2.3 mph NE3.7 kmh NE 2.3 mph3.7 kmh 30.09 in1019.0 mb - 0.00 in0.0 mm 0.11 in2.8 mm
01:50 PM 64.9°F18.3°C 60.9°F16.1°C 87% 3.5 mph E5.6 kmh E 5.8 mph9.3 kmh 30.09 in1019.0 mb - 0.00 in0.0 mm 0.11 in2.8 mm
02:00 PM 65.9°F18.8°C 61.3°F16.3°C 85% 2.3 mph ESE3.7 kmh ESE 2.3 mph3.7 kmh 30.10 in1019.3 mb - 0.00 in0.0 mm 0.11 in2.8 mm
02:10 PM 66.0°F18.9°C 59.7°F15.4°C 80% 1.2 mph S1.9 kmh S 2.3 mph3.7 kmh 30.10 in1019.3 mb - 0.00 in0.0 mm 0.11 in2.8 mm
02:20 PM 66.0°F18.9°C 60.4°F15.8°C 82% 2.3 mph ESE3.7 kmh ESE 2.3 mph3.7 kmh 30.10 in1019.3 mb - 0.00 in0.0 mm 0.11 in2.8 mm
02:30 PM 65.7°F18.7°C 60.1°F15.6°C 82% 2.3 mph SSW3.7 kmh SSW 2.3 mph3.7 kmh 30.10 in1019.3 mb - 0.00 in0.0 mm 0.11 in2.8 mm
02:40 PM 66.4°F19.1°C 61.1°F16.2°C 83% 1.2 mph E1.9 kmh E 2.3 mph3.7 kmh 30.10 in1019.3 mb - 0.00 in0.0 mm 0.11 in2.8 mm
02:50 PM 66.9°F19.4°C 60.2°F15.7°C 79% 3.5 mph S5.6 kmh S 2.3 mph3.7 kmh 30.11 in1019.6 mb - 0.00 in0.0 mm 0.11 in2.8 mm
03:00 PM 67.2°F19.6°C 61.2°F16.2°C 81% 3.5 mph SE5.6 kmh SE 2.3 mph3.7 kmh 30.12 in1020.0 mb - 0.00 in0.0 mm 0.11 in2.8 mm
03:10 PM 68.6°F20.3°C 62.2°F16.8°C 80% 1.2 mph ENE1.9 kmh ENE 5.8 mph9.3 kmh 30.12 in1020.0 mb - 0.00 in0.0 mm 0.11 in2.8 mm
03:20 PM 69.1°F20.6°C 61.2°F16.2°C 76% 1.2 mph E1.9 kmh E 5.8 mph9.3 kmh 30.12 in1020.0 mb - 0.00 in0.0 mm 0.11 in2.8 mm
03:30 PM 68.9°F20.5°C 59.5°F15.3°C 72% 3.5 mph SE5.6 kmh SE 6.9 mph11.1 kmh 30.12 in1020.0 mb - 0.00 in0.0 mm 0.11 in2.8 mm
03:40 PM 68.6°F20.3°C 59.2°F15.1°C 72% 2.3 mph SE3.7 kmh SE 3.5 mph5.6 kmh 30.12 in1020.0 mb - 0.00 in0.0 mm 0.11 in2.8 mm
03:50 PM 69.1°F20.6°C 58.9°F14.9°C 70% 4.6 mph S7.4 kmh S 8.1 mph13.0 kmh 30.12 in1020.0 mb - 0.00 in0.0 mm 0.11 in2.8 mm
04:00 PM 69.2°F20.7°C 59.0°F15.0°C 70% 4.6 mph SE7.4 kmh SE 5.8 mph9.3 kmh 30.11 in1019.6 mb - 0.00 in0.0 mm 0.11 in2.8 mm
04:10 PM 69.8°F21.0°C 60.0°F15.6°C 71% 2.3 mph WSW3.7 kmh WSW 2.3 mph3.7 kmh 30.11 in1019.6 mb - 0.00 in0.0 mm 0.11 in2.8 mm
04:20 PM 69.5°F20.8°C 58.1°F14.5°C 67% 3.5 mph ESE5.6 kmh ESE 3.5 mph5.6 kmh 30.12 in1020.0 mb - 0.00 in0.0 mm 0.11 in2.8 mm
04:30 PM 69.7°F20.9°C 57.0°F13.9°C 64% 4.6 mph SSE7.4 kmh SSE 2.3 mph3.7 kmh 30.12 in1020.0 mb - 0.00 in0.0 mm 0.11 in2.8 mm
04:40 PM 69.0°F20.6°C 57.1°F13.9°C 66% 6.9 mph SSW11.1 kmh SSW 9.2 mph14.8 kmh 30.11 in1019.6 mb - 0.00 in0.0 mm 0.11 in2.8 mm
04:50 PM 68.9°F20.5°C 58.7°F14.8°C 70% 3.5 mph S5.6 kmh S 5.8 mph9.3 kmh 30.11 in1019.6 mb - 0.00 in0.0 mm 0.11 in2.8 mm
05:00 PM 70.0°F21.1°C 58.6°F14.8°C 67% 3.5 mph WSW5.6 kmh WSW 5.8 mph9.3 kmh 30.12 in1020.0 mb - 0.00 in0.0 mm 0.11 in2.8 mm
05:10 PM 69.4°F20.8°C 58.4°F14.7°C 68% 5.8 mph SE9.3 kmh SE 9.2 mph14.8 kmh 30.12 in1020.0 mb - 0.00 in0.0 mm 0.11 in2.8 mm
05:20 PM 67.8°F19.9°C 59.2°F15.1°C 74% 4.6 mph SE7.4 kmh SE 6.9 mph11.1 kmh 30.13 in1020.3 mb - 0.00 in0.0 mm 0.11 in2.8 mm
05:30 PM 66.1°F18.9°C 58.7°F14.8°C 77% 3.5 mph SE5.6 kmh SE 6.9 mph11.1 kmh 30.13 in1020.3 mb - 0.00 in0.0 mm 0.11 in2.8 mm
05:40 PM 65.5°F18.6°C 58.5°F14.7°C 78% 4.6 mph SW7.4 kmh SW 9.2 mph14.8 kmh 30.13 in1020.3 mb - 0.00 in0.0 mm 0.11 in2.8 mm
05:50 PM 64.8°F18.2°C 58.4°F14.7°C 80% 5.8 mph SE9.3 kmh SE 8.1 mph13.0 kmh 30.14 in1020.7 mb - 0.00 in0.0 mm 0.11 in2.8 mm
06:00 PM 64.2°F17.9°C 58.5°F14.7°C 82% 2.3 mph SW3.7 kmh SW 2.3 mph3.7 kmh 30.14 in1020.7 mb - 0.00 in0.0 mm 0.11 in2.8 mm
06:10 PM 63.7°F17.6°C 58.1°F14.5°C 82% 3.5 mph S5.6 kmh S 8.1 mph13.0 kmh 30.14 in1020.7 mb - 0.00 in0.0 mm 0.11 in2.8 mm
06:20 PM 63.4°F17.4°C 58.1°F14.5°C 83% 2.3 mph SE3.7 kmh SE 2.3 mph3.7 kmh 30.14 in1020.7 mb - 0.00 in0.0 mm 0.11 in2.8 mm
06:30 PM 63.0°F17.2°C 57.8°F14.3°C 83% 1.2 mph S1.9 kmh S 2.3 mph3.7 kmh 30.14 in1020.7 mb - 0.00 in0.0 mm 0.11 in2.8 mm
06:40 PM 63.0°F17.2°C 57.4°F14.1°C 82% 3.5 mph SE5.6 kmh SE 3.5 mph5.6 kmh 30.14 in1020.7 mb - 0.00 in0.0 mm 0.11 in2.8 mm
06:50 PM 62.8°F17.1°C 56.8°F13.8°C 81% 2.3 mph SE3.7 kmh SE 2.3 mph3.7 kmh 30.15 in1021.0 mb - 0.00 in0.0 mm 0.11 in2.8 mm
07:00 PM 62.3°F16.8°C 57.4°F14.1°C 84% 2.3 mph SE3.7 kmh SE 2.3 mph3.7 kmh 30.15 in1021.0 mb - 0.00 in0.0 mm 0.11 in2.8 mm
07:10 PM 61.8°F16.6°C 57.2°F14.0°C 85% Calm Calm 2.3 mph3.7 kmh 30.14 in1020.7 mb - 0.00 in0.0 mm 0.11 in2.8 mm
07:20 PM 61.2°F16.2°C 56.9°F13.8°C 86% 1.2 mph SE1.9 kmh SE 1.2 mph1.9 kmh 30.15 in1021.0 mb - 0.00 in0.0 mm 0.11 in2.8 mm
07:30 PM 60.7°F15.9°C 56.8°F13.8°C 87% 2.3 mph SSW3.7 kmh SSW 2.3 mph3.7 kmh 30.15 in1021.0 mb - 0.00 in0.0 mm 0.11 in2.8 mm
07:40 PM 60.2°F15.7°C 56.6°F13.7°C 88% 1.2 mph S1.9 kmh S 2.3 mph3.7 kmh 30.15 in1021.0 mb - 0.00 in0.0 mm 0.11 in2.8 mm
07:50 PM 59.9°F15.5°C 56.6°F13.7°C 89% 2.3 mph SE3.7 kmh SE 2.3 mph3.7 kmh 30.15 in1021.0 mb - 0.00 in0.0 mm 0.11 in2.8 mm
08:00 PM 59.3°F15.2°C 56.4°F13.6°C 90% Calm Calm 1.2 mph1.9 kmh 30.15 in1021.0 mb - 0.00 in0.0 mm 0.11 in2.8 mm
08:10 PM 58.6°F14.8°C 56.5°F13.6°C 93% 2.3 mph SE3.7 kmh SE 2.3 mph3.7 kmh 30.15 in1021.0 mb - 0.00 in0.0 mm 0.11 in2.8 mm
08:20 PM 58.0°F14.4°C 56.2°F13.4°C 94% 1.2 mph SE1.9 kmh SE 1.2 mph1.9 kmh 30.15 in1021.0 mb - 0.00 in0.0 mm 0.11 in2.8 mm
08:30 PM 57.4°F14.1°C 56.0°F13.3°C 95% Calm Calm -- 30.16 in1021.3 mb - 0.00 in0.0 mm 0.11 in2.8 mm
08:40 PM 57.0°F13.9°C 56.2°F13.4°C 97% Calm Calm 1.2 mph1.9 kmh 30.17 in1021.7 mb - 0.00 in0.0 mm 0.11 in2.8 mm
08:50 PM 56.9°F13.8°C 56.0°F13.3°C 97% 1.2 mph SSE1.9 kmh SSE 2.3 mph3.7 kmh 30.17 in1021.7 mb - 0.00 in0.0 mm 0.11 in2.8 mm
09:00 PM 56.5°F13.6°C 55.6°F13.1°C 97% Calm Calm 1.2 mph1.9 kmh 30.17 in1021.7 mb - 0.00 in0.0 mm 0.11 in2.8 mm
09:10 PM 56.0°F13.3°C 55.1°F12.8°C 97% 1.2 mph ESE1.9 kmh ESE 2.3 mph3.7 kmh 30.18 in1022.0 mb - 0.00 in0.0 mm 0.11 in2.8 mm
09:20 PM 55.5°F13.1°C 54.6°F12.6°C 97% Calm Calm -- 30.17 in1021.7 mb - 0.00 in0.0 mm 0.11 in2.8 mm
09:30 PM 55.1°F12.8°C 54.2°F12.3°C 97% Calm Calm -- 30.17 in1021.7 mb - 0.00 in0.0 mm 0.11 in2.8 mm
09:40 PM 54.7°F12.6°C 53.8°F12.1°C 97% Calm Calm -- 30.17 in1021.7 mb - 0.00 in0.0 mm 0.11 in2.8 mm
09:50 PM 54.2°F12.3°C 53.3°F11.8°C 97% Calm Calm -- 30.17 in1021.7 mb - 0.00 in0.0 mm 0.11 in2.8 mm
10:00 PM 53.8°F12.1°C 52.9°F11.6°C 97% Calm Calm -- 30.17 in1021.7 mb - 0.00 in0.0 mm 0.11 in2.8 mm
10:10 PM 53.2°F11.8°C 52.4°F11.3°C 97% Calm Calm -- 30.17 in1021.7 mb - 0.00 in0.0 mm 0.11 in2.8 mm
10:20 PM 52.8°F11.6°C 52.0°F11.1°C 97% Calm Calm -- 30.16 in1021.3 mb - 0.00 in0.0 mm 0.11 in2.8 mm
10:30 PM 52.8°F11.6°C 52.0°F11.1°C 97% Calm Calm -- 30.16 in1021.3 mb - 0.00 in0.0 mm 0.11 in2.8 mm
10:40 PM 52.7°F11.5°C 51.9°F11.1°C 97% Calm Calm -- 30.16 in1021.3 mb - 0.00 in0.0 mm 0.11 in2.8 mm
10:50 PM 52.5°F11.4°C 51.7°F10.9°C 97% Calm Calm -- 30.16 in1021.3 mb - 0.00 in0.0 mm 0.11 in2.8 mm
11:00 PM 52.2°F11.2°C 51.4°F10.8°C 97% Calm Calm -- 30.16 in1021.3 mb - 0.00 in0.0 mm 0.11 in2.8 mm
11:10 PM 52.5°F11.4°C 51.7°F10.9°C 97% Calm Calm -- 30.16 in1021.3 mb - 0.00 in0.0 mm 0.11 in2.8 mm
11:20 PM 52.2°F11.2°C 51.4°F10.8°C 97% Calm Calm -- 30.16 in1021.3 mb - 0.00 in0.0 mm 0.11 in2.8 mm
11:30 PM 52.0°F11.1°C 51.2°F10.7°C 97% Calm Calm -- 30.15 in1021.0 mb - 0.00 in0.0 mm 0.11 in2.8 mm
11:40 PM 51.8°F11.0°C 51.0°F10.6°C 97% Calm Calm -- 30.16 in1021.3 mb - 0.00 in0.0 mm 0.11 in2.8 mm
11:50 PM 51.6°F10.9°C 50.8°F10.4°C 97% 1.2 mph ENE1.9 kmh ENE 2.3 mph3.7 kmh 30.16 in1021.3 mb - 0.00 in0.0 mm 0.11 in2.8 mm